createdAt,value
2023-05-22T05:04:29.396Z,97814.16
2023-05-22T05:09:31.321Z,97806.00
2023-05-22T05:14:33.842Z,97815.06
2023-05-22T05:19:36.961Z,97811.22
2023-05-22T05:24:38.974Z,97818.25
2023-05-22T05:29:41.156Z,97818.16
2023-05-22T05:34:54.167Z,97815.97
2023-05-22T05:40:16.140Z,97823.28
2023-05-22T05:45:22.530Z,97833.53
2023-05-22T05:50:32.285Z,97829.25
2023-05-22T05:55:34.721Z,97825.75
2023-05-22T06:00:38.977Z,97827.69
2023-05-22T06:05:54.217Z,97822.31
2023-05-22T06:16:46.352Z,97822.63
2023-05-22T06:21:51.489Z,97824.50
2023-05-22T06:26:54.931Z,97823.72
2023-05-22T06:31:57.858Z,97822.06
2023-05-22T06:37:22.386Z,97822.66
2023-05-22T06:49:23.596Z,97813.25
2023-05-22T06:54:37.301Z,97817.44
2023-05-22T06:59:39.953Z,97822.44
2023-05-22T07:04:47.604Z,97825.78
2023-05-22T07:09:59.482Z,97821.00
2023-05-22T07:15:02.927Z,97829.00
2023-05-22T07:20:07.344Z,97816.06
2023-05-22T07:25:11.469Z,97814.75
2023-05-22T07:30:59.074Z,97806.41
2023-05-22T07:36:01.243Z,97807.66
2023-05-22T07:41:04.690Z,97813.50
2023-05-22T07:46:09.649Z,97812.53
2023-05-22T07:51:20.034Z,97795.66
2023-05-22T07:56:25.990Z,97803.94
2023-05-22T08:01:29.065Z,97795.66
2023-05-22T08:06:31.134Z,97784.41
2023-05-22T08:11:33.869Z,97789.91
2023-05-22T08:16:35.527Z,97801.97
2023-05-22T08:21:37.943Z,97794.25
2023-05-22T08:26:40.985Z,97793.25
2023-05-22T08:31:42.561Z,97796.53
2023-05-22T08:36:44.394Z,97794.41
2023-05-22T08:41:47.770Z,97790.16
2023-05-22T08:46:56.473Z,97785.94
2023-05-22T08:52:07.878Z,97782.00
2023-05-22T08:57:51.486Z,97781.88
2023-05-22T09:02:53.784Z,97770.00
2023-05-22T09:08:08.365Z,97776.16
2023-05-22T09:13:29.357Z,97768.41
2023-05-22T09:18:31.905Z,97771.44
2023-05-22T09:23:33.516Z,97767.91
2023-05-22T09:28:35.668Z,97766.88
2023-05-22T09:33:38.794Z,97770.69
2023-05-22T09:38:42.891Z,97767.22
2023-05-22T09:44:16.296Z,97766.66
2023-05-22T09:49:18.004Z,97774.88
2023-05-22T09:54:20.350Z,97765.59
2023-05-22T09:59:27.239Z,97765.03
2023-05-22T10:04:36.042Z,97759.31
2023-05-22T10:09:41.385Z,97755.78
2023-05-22T10:14:43.554Z,97749.78
2023-05-22T10:19:47.062Z,97742.41
2023-05-22T10:24:49.449Z,97743.47
2023-05-22T10:29:56.351Z,97733.97
2023-05-22T10:35:11.647Z,97732.31
2023-05-22T10:40:18.315Z,97740.50
2023-05-22T10:45:19.991Z,97740.50
2023-05-22T10:50:21.529Z,97734.78
2023-05-22T10:55:23.126Z,97728.22
2023-05-22T11:00:24.708Z,97725.78
2023-05-22T11:05:30.553Z,97724.97
2023-05-22T11:10:54.993Z,97717.34
2023-05-22T11:15:57.655Z,97715.94
2023-05-22T11:20:59.740Z,97717.84
2023-05-22T11:26:17.737Z,97705.56
2023-05-22T11:31:20.455Z,97696.84
2023-05-22T11:36:23.354Z,97700.63
2023-05-22T11:41:24.863Z,97695.44
2023-05-22T11:46:26.841Z,97680.97
2023-05-22T11:51:29.073Z,97685.31
2023-05-22T12:09:05.784Z,97675.75
2023-05-22T12:19:59.372Z,97664.19
2023-05-22T12:25:03.546Z,97669.34
2023-05-22T12:30:10.670Z,97657.84
2023-05-22T12:40:42.703Z,97658.63
2023-05-22T12:45:45.160Z,97659.09
2023-05-22T12:50:47.331Z,97657.66
2023-05-22T12:55:48.877Z,97655.28
2023-05-22T13:00:50.407Z,97653.72
2023-05-22T13:05:52.467Z,97641.94
2023-05-22T13:30:53.019Z,97635.78
2023-05-22T13:35:55.191Z,97623.63
2023-05-22T13:40:57.448Z,97625.63
2023-05-22T13:45:59.387Z,97613.50
2023-05-22T13:51:09.226Z,97612.03
2023-05-22T13:56:11.760Z,97606.38
2023-05-22T14:01:35.047Z,97598.22
2023-05-22T14:06:36.753Z,97607.63
2023-05-22T14:11:38.424Z,97610.25
2023-05-22T14:16:41.015Z,97580.88
2023-05-22T14:35:51.175Z,97584.97
2023-05-22T14:40:53.482Z,97582.75
2023-05-22T14:45:56.719Z,97569.19
2023-05-22T14:50:58.402Z,97577.09
2023-05-22T14:55:59.920Z,97578.06
2023-05-22T15:01:01.414Z,97575.63
2023-05-22T15:06:03.071Z,97569.91
2023-05-22T15:11:04.684Z,97560.91
2023-05-22T15:16:06.231Z,97562.03
2023-05-22T15:21:08.115Z,97555.28
2023-05-22T15:26:09.919Z,97543.84
2023-05-22T15:31:13.273Z,97544.38
2023-05-22T15:36:14.929Z,97547.13
2023-05-22T15:41:16.425Z,97542.63
2023-05-22T15:46:18.017Z,97543.38
2023-05-22T15:51:19.545Z,97532.09
2023-05-22T15:56:21.445Z,97530.75
2023-05-22T16:01:23.004Z,97526.63
2023-05-22T16:06:24.570Z,97525.13
2023-05-22T16:11:26.093Z,97526.25
2023-05-22T16:16:27.831Z,97517.28
2023-05-22T16:21:29.613Z,97522.78
2023-05-22T16:26:31.089Z,97520.16
2023-05-22T16:36:36.767Z,97516.28
2023-05-22T16:41:38.613Z,97519.34
2023-05-22T16:46:40.100Z,97518.09
2023-05-22T16:51:41.616Z,97516.09
2023-05-22T16:56:43.083Z,97510.03
2023-05-22T17:01:44.668Z,97511.06
2023-05-22T17:06:46.283Z,97511.72
2023-05-22T17:11:48.278Z,97513.94
2023-05-22T17:16:49.843Z,97495.03
2023-05-22T17:21:51.358Z,97502.25
2023-05-22T17:26:52.875Z,97507.31
2023-05-22T17:31:54.416Z,97502.44
2023-05-22T17:36:55.881Z,97498.50
2023-05-22T17:41:59.051Z,97497.16
2023-05-22T17:47:01.787Z,97511.13
2023-05-22T17:52:03.255Z,97521.28
2023-05-22T17:57:04.696Z,97506.09
2023-05-22T18:02:06.730Z,97504.72
2023-05-22T18:07:08.214Z,97524.94
2023-05-22T18:12:15.242Z,97500.69
2023-05-22T18:17:26.381Z,97516.75
2023-05-22T18:22:27.872Z,97506.16
2023-05-22T18:27:29.424Z,97497.97
2023-05-22T18:32:31.154Z,97490.59
2023-05-22T18:37:32.814Z,97500.09
2023-05-22T18:42:34.219Z,97492.47
2023-05-22T18:47:35.964Z,97509.25
2023-05-22T18:52:38.027Z,97507.59
2023-05-22T18:57:39.517Z,97506.44
2023-05-22T19:02:41.024Z,97508.53
2023-05-22T19:07:42.626Z,97509.03
2023-05-22T19:12:44.219Z,97515.47
2023-05-22T19:17:45.725Z,97512.72
2023-05-22T19:22:47.287Z,97516.19
2023-05-22T19:27:48.892Z,97512.28
2023-05-22T19:32:50.431Z,97511.94
2023-05-22T19:37:51.915Z,97518.13
2023-05-22T19:42:53.387Z,97524.28
2023-05-22T19:47:55.648Z,97521.75
2023-05-22T19:52:57.174Z,97528.47
2023-05-22T19:57:58.736Z,97532.72
2023-05-22T20:03:00.513Z,97529.66
2023-05-22T20:08:01.990Z,97515.50
2023-05-22T20:13:05.100Z,97519.19
2023-05-22T20:18:08.360Z,97524.28
2023-05-22T20:23:09.894Z,97523.69
2023-05-22T20:28:11.630Z,97523.13
2023-05-22T20:33:14.290Z,97517.13
2023-05-22T20:38:16.022Z,97507.38
2023-05-22T20:43:18.496Z,97510.59
2023-05-22T20:48:20.054Z,97506.22
2023-05-22T20:53:21.539Z,97507.31
2023-05-22T20:58:23.236Z,97503.78
2023-05-22T21:03:25.935Z,97509.72
2023-05-22T21:08:27.672Z,97500.19
2023-05-22T21:13:29.164Z,97508.03
2023-05-22T21:18:30.988Z,97500.63
2023-05-22T21:23:32.366Z,97501.66
2023-05-22T21:28:33.866Z,97499.72
2023-05-22T21:33:35.438Z,97490.19
2023-05-22T21:38:36.955Z,97492.31
2023-05-22T21:43:38.709Z,97487.91
2023-05-22T21:48:40.301Z,97495.69
2023-05-22T21:53:42.018Z,97508.19
2023-05-22T21:58:43.533Z,97506.78
